Main page
METAR-TAF:

METAR-TAF

Airports :

Václav Havel Airport Prague

Prague, Czech Republic

latitude: 50-06N, longitude: 014-15E, elevation: 365 m

Current weather observation

The report was made 38 minutes ago, at 22:00 UTC
Wind 2 kt from variable directions
Temperature 18°C
Humidity 56%
Pressure 1027 hPa
Visibility 10 km or more
no clouds below 1500 m and no cumulonimbus

METAR: LKPR 092200Z VRB02KT CAVOK 18/09 Q1027 NOSIG

Time: 00:38 (22:38 UTC)

Forecast

The report was made 5 hours and 38 minutes ago, at 17:00 UTC
Forecast valid from 09 at 18 UTC to 11 at 00 UTC
Wind 8 kt from the East
Visibility 10 km or more
no clouds below 1500 m and no cumulonimbus
Temporary
from 10 at 00 UTC to 10 at 06 UTC
Wind 2 kt from variable directions

TAF: LKPR 091700Z 0918/1100 08008KT CAVOK TEMPO 1000/1006 VRB02KT

Weather observations and forecasts of more than 4000 airports (METAR and TAF reports).

The available stations are represented by yellow and red dots on the map.

Hover mouse over dot to see the name of the station.

Then click to see weather observations and forecasts.

To change the map : click on the green buttons with a black cross to zoom in, on the green button with a dash to zoom out, or on the green arrows for adjacent maps.


METAR-TAF: